Time;durP1;ratioP1;P1;durP2;ratioP2;P2;SDS_P1;SDS_P2;PMS_P1;PMS_P2;Temp;Humidity;BMP_temperature;BMP_pressure;BME280_temperature;BME280_humidity;BME280_pressure;Samples;Min_cycle;Max_cycle;Signal;HPM_P1;HPM_P2
2021/11/02 00:01:38;;;;;;;2.53;2.33;;;;;;;20.35;60.12;99036.74;;;;-54
2021/11/02 00:04:38;;;;;;;2.41;1.98;;;;;;;20.35;60.11;99036.27;;;;-54
2021/11/02 00:07:38;;;;;;;2.41;2.21;;;;;;;20.33;60.11;99031.41;;;;-57
2021/11/02 00:10:38;;;;;;;2.35;2.15;;;;;;;20.33;60.08;99036.48;;;;-57
2021/11/02 00:13:41;;;;;;;2.51;2.23;;;;;;;20.31;60.09;99034.40;;;;-57
2021/11/02 00:16:38;;;;;;;2.32;2.12;;;;;;;20.29;60.10;99035.98;;;;-57
2021/11/02 00:19:41;;;;;;;2.38;2.18;;;;;;;20.27;60.09;99032.69;;;;-57
2021/11/02 00:22:39;;;;;;;2.30;2.10;;;;;;;20.27;60.12;99034.14;;;;-47
2021/11/02 00:25:38;;;;;;;2.23;2.03;;;;;;;20.25;60.14;99031.64;;;;-47
2021/11/02 00:28:39;;;;;;;2.61;2.29;;;;;;;20.24;60.11;99034.36;;;;-47
2021/11/02 00:31:38;;;;;;;2.25;2.05;;;;;;;20.23;60.14;99033.41;;;;-47
2021/11/02 00:34:38;;;;;;;2.36;2.16;;;;;;;20.22;60.15;99029.61;;;;-47
2021/11/02 00:37:38;;;;;;;2.39;2.19;;;;;;;20.21;60.16;99030.45;;;;-47
2021/11/02 00:40:40;;;;;;;2.35;2.15;;;;;;;20.20;60.15;99026.97;;;;-47
2021/11/02 00:43:38;;;;;;;2.46;2.05;;;;;;;20.19;60.16;99029.66;;;;-47
2021/11/02 00:46:38;;;;;;;2.30;2.10;;;;;;;20.17;60.16;99029.70;;;;-53
2021/11/02 00:49:39;;;;;;;2.33;2.09;;;;;;;20.16;60.17;99032.89;;;;-52
2021/11/02 00:52:38;;;;;;;2.27;2.07;;;;;;;20.15;60.21;99034.39;;;;-54
2021/11/02 00:55:38;;;;;;;2.45;2.25;;;;;;;20.14;60.16;99028.88;;;;-54
2021/11/02 00:58:38;;;;;;;2.19;1.99;;;;;;;20.13;60.20;99025.64;;;;-57
2021/11/02 01:01:38;;;;;;;2.25;2.05;;;;;;;20.12;60.19;99025.00;;;;-57
2021/11/02 01:04:38;;;;;;;2.30;2.10;;;;;;;20.10;60.22;99020.97;;;;-47
2021/11/02 01:07:38;;;;;;;2.26;2.00;;;;;;;20.09;60.22;99030.75;;;;-47
2021/11/02 01:10:38;;;;;;;2.31;2.11;;;;;;;20.08;60.20;99028.96;;;;-47
2021/11/02 01:13:38;;;;;;;2.20;2.00;;;;;;;20.07;60.20;99027.55;;;;-47
2021/11/02 01:16:38;;;;;;;3.13;1.98;;;;;;;20.06;60.22;99026.08;;;;-47
2021/11/02 01:19:38;;;;;;;2.56;2.00;;;;;;;20.05;60.23;99018.39;;;;-47
2021/11/02 01:22:38;;;;;;;2.25;2.05;;;;;;;20.03;60.28;99013.30;;;;-47
2021/11/02 01:25:38;;;;;;;2.27;2.07;;;;;;;20.03;60.28;99007.06;;;;-47
2021/11/02 01:28:38;;;;;;;2.21;2.01;;;;;;;20.01;60.26;99009.27;;;;-48
2021/11/02 01:31:38;;;;;;;2.21;2.01;;;;;;;20.01;60.28;99007.02;;;;-48
2021/11/02 01:34:38;;;;;;;2.25;2.05;;;;;;;20.00;60.27;99012.88;;;;-48
2021/11/02 01:37:39;;;;;;;3.11;2.09;;;;;;;19.99;60.27;99016.33;;;;-48
2021/11/02 01:40:38;;;;;;;2.46;2.26;;;;;;;19.96;60.33;99013.36;;;;-57
2021/11/02 01:43:38;;;;;;;2.30;2.10;;;;;;;19.97;60.30;99015.55;;;;-57
2021/11/02 01:46:40;;;;;;;2.22;1.87;;;;;;;19.95;60.32;99014.28;;;;-57
2021/11/02 01:49:38;;;;;;;2.04;1.84;;;;;;;19.95;60.31;99010.45;;;;-57
2021/11/02 01:52:38;;;;;;;2.02;1.82;;;;;;;19.93;60.35;99012.38;;;;-57
2021/11/02 01:55:38;;;;;;;2.19;1.99;;;;;;;19.93;60.33;99012.38;;;;-54
2021/11/02 01:58:38;;;;;;;2.30;2.10;;;;;;;19.92;60.35;99013.52;;;;-57
2021/11/02 02:01:38;;;;;;;2.28;2.08;;;;;;;19.91;60.37;99013.38;;;;-57
2021/11/02 02:04:38;;;;;;;2.23;2.03;;;;;;;19.89;60.35;99013.72;;;;-57
2021/11/02 02:07:38;;;;;;;2.09;1.89;;;;;;;19.89;60.30;99015.84;;;;-57
2021/11/02 02:10:38;;;;;;;2.33;2.13;;;;;;;19.88;60.32;99017.48;;;;-48
2021/11/02 02:13:39;;;;;;;2.11;1.91;;;;;;;19.88;60.35;99017.34;;;;-48
2021/11/02 02:16:38;;;;;;;2.04;1.87;;;;;;;19.86;60.36;99017.20;;;;-48
2021/11/02 02:19:38;;;;;;;2.13;1.93;;;;;;;19.85;60.33;99011.34;;;;-48
2021/11/02 02:22:38;;;;;;;2.10;1.90;;;;;;;19.85;60.35;99014.12;;;;-54
2021/11/02 02:25:38;;;;;;;2.15;1.95;;;;;;;19.84;60.37;99019.60;;;;-54
2021/11/02 02:28:38;;;;;;;2.13;1.93;;;;;;;19.83;60.32;99016.52;;;;-54
2021/11/02 02:31:38;;;;;;;2.09;1.89;;;;;;;19.82;60.35;99012.65;;;;-47
2021/11/02 02:34:38;;;;;;;2.18;1.98;;;;;;;19.81;60.36;99007.20;;;;-47
2021/11/02 02:37:38;;;;;;;2.15;1.95;;;;;;;19.81;60.39;99005.59;;;;-47
2021/11/02 02:40:38;;;;;;;2.15;1.95;;;;;;;19.80;60.38;99008.86;;;;-47
2021/11/02 02:43:38;;;;;;;2.02;1.91;;;;;;;19.79;60.39;99006.02;;;;-47
2021/11/02 02:46:38;;;;;;;2.07;1.87;;;;;;;19.78;60.40;99005.06;;;;-57
2021/11/02 02:49:38;;;;;;;2.22;2.02;;;;;;;19.78;60.39;99008.17;;;;-57
2021/11/02 02:52:38;;;;;;;2.33;1.90;;;;;;;19.77;60.38;99009.22;;;;-57
2021/11/02 02:55:38;;;;;;;1.93;1.83;;;;;;;19.77;60.34;99006.88;;;;-57
2021/11/02 02:58:38;;;;;;;2.21;1.91;;;;;;;19.76;60.38;99000.41;;;;-57
2021/11/02 03:01:38;;;;;;;2.21;1.91;;;;;;;19.76;60.36;98998.88;;;;-57
2021/11/02 03:04:38;;;;;;;1.86;1.74;;;;;;;19.75;60.36;98995.13;;;;-56
2021/11/02 03:07:38;;;;;;;1.98;1.80;;;;;;;19.74;60.37;98993.78;;;;-57
2021/11/02 03:10:39;;;;;;;2.15;1.95;;;;;;;19.72;60.37;98992.66;;;;-57
2021/11/02 03:13:38;;;;;;;2.84;1.80;;;;;;;19.72;60.39;98989.98;;;;-57
2021/11/02 03:16:44;;;;;;;1.77;1.67;;;;;;;19.71;60.39;98988.53;;;;-56
2021/11/02 03:20:31;;;;;;;1.85;1.75;;;;;;;19.71;60.35;98995.61;;;;-57
2021/11/02 03:50:41;;;;;;;1.91;1.73;;;;;;;19.63;60.41;98998.50;;;;-47
2021/11/02 03:56:56;;;;;;;1.79;1.69;;;;;;;19.63;60.45;98994.00;;;;-48
2021/11/02 04:01:06;;;;;;;2.00;1.85;;;;;;;19.62;60.46;98995.17;;;;-48
2021/11/02 04:25:00;;;;;;;1.80;1.70;;;;;;;19.57;60.47;99002.00;;;;-53
2021/11/02 04:27:52;;;;;;;2.13;1.77;;;;;;;19.57;60.48;99002.41;;;;-47
2021/11/02 04:30:56;;;;;;;1.67;1.57;;;;;;;19.56;60.50;99006.06;;;;-54
2021/11/02 04:34:23;;;;;;;1.73;1.63;;;;;;;19.55;60.46;99002.22;;;;-47
2021/11/02 04:47:04;;;;;;;1.80;1.70;;;;;;;19.53;60.45;99001.11;;;;-57
2021/11/02 05:07:59;;;;;;;1.86;1.76;;;;;;;19.50;60.50;98999.52;;;;-47
2021/11/02 05:10:55;;;;;;;1.73;1.63;;;;;;;19.49;60.47;99001.67;;;;-47
2021/11/02 05:19:52;;;;;;;1.71;1.60;;;;;;;19.48;60.54;98997.43;;;;-48
2021/11/02 05:46:54;;;;;;;1.69;1.59;;;;;;;19.47;60.60;98999.58;;;;-47
2021/11/02 05:49:56;;;;;;;1.62;1.52;;;;;;;19.47;60.59;98999.81;;;;-54
2021/11/02 05:54:42;;;;;;;1.69;1.59;;;;;;;19.49;60.66;99001.41;;;;-48
2021/11/02 05:57:44;;;;;;;1.85;1.65;;;;;;;19.53;60.58;98998.98;;;;-47
2021/11/02 06:00:47;;;;;;;1.71;1.61;;;;;;;19.56;60.65;99001.95;;;;-47
2021/11/02 06:03:45;;;;;;;1.69;1.59;;;;;;;19.59;60.59;99008.55;;;;-47
2021/11/02 06:06:43;;;;;;;1.70;1.60;;;;;;;19.62;60.62;99005.66;;;;-47
2021/11/02 06:09:42;;;;;;;1.70;1.60;;;;;;;19.66;60.70;99003.37;;;;-47
2021/11/02 06:23:24;;;;;;;1.63;1.53;;;;;;;19.73;60.73;99003.28;;;;-47
2021/11/02 06:28:38;;;;;;;1.60;1.50;;;;;;;19.89;60.84;99007.64;;;;-57
2021/11/02 06:31:40;;;;;;;2.77;1.59;;;;;;;19.92;60.88;99005.47;;;;-57
2021/11/02 06:34:47;;;;;;;3.27;1.91;;;;;;;19.71;56.91;99012.00;;;;-51
2021/11/02 06:37:50;;;;;;;5.09;2.13;;;;;;;19.49;55.27;99009.53;;;;-58
2021/11/02 06:44:41;;;;;;;4.33;2.28;;;;;;;19.43;55.24;99014.84;;;;-48
2021/11/02 06:47:58;;;;;;;3.89;1.94;;;;;;;19.57;56.64;99013.72;;;;-50
2021/11/02 06:54:02;;;;;;;2.75;1.80;;;;;;;19.71;57.15;99019.57;;;;-46
2021/11/02 06:56:55;;;;;;;4.23;1.93;;;;;;;19.75;57.60;99021.14;;;;-46
2021/11/02 07:15:11;;;;;;;3.41;1.83;;;;;;;19.85;58.28;99018.77;;;;-45
2021/11/02 07:16:53;;;;;;;2.62;1.80;;;;;;;19.87;58.40;99021.97;;;;-56
2021/11/02 07:19:40;;;;;;;4.03;1.71;;;;;;;19.87;58.47;99017.83;;;;-54
2021/11/02 07:22:52;;;;;;;2.65;1.75;;;;;;;19.88;58.53;99015.63;;;;-56
2021/11/02 07:25:47;;;;;;;2.24;1.70;;;;;;;19.88;58.61;99015.78;;;;-46
2021/11/02 08:45:49;;;;;;;1.53;1.40;;;;;;;19.81;59.38;99034.45;;;;-48
2021/11/02 08:48:38;;;;;;;2.55;1.55;;;;;;;19.80;59.25;99031.70;;;;-48
2021/11/02 08:51:38;;;;;;;1.56;1.46;;;;;;;19.79;59.36;99030.34;;;;-48
2021/11/02 08:54:38;;;;;;;1.57;1.47;;;;;;;19.78;59.38;99026.29;;;;-48
2021/11/02 08:57:38;;;;;;;1.49;1.39;;;;;;;19.78;59.39;99025.22;;;;-48
2021/11/02 09:00:38;;;;;;;1.56;1.37;;;;;;;19.77;59.31;99019.86;;;;-48
2021/11/02 09:03:38;;;;;;;1.86;1.49;;;;;;;19.77;59.34;99020.78;;;;-48
2021/11/02 09:06:39;;;;;;;1.60;1.50;;;;;;;19.76;59.35;99023.81;;;;-48
2021/11/02 09:09:40;;;;;;;1.57;1.44;;;;;;;19.75;59.33;99020.55;;;;-48
2021/11/02 09:12:38;;;;;;;1.41;1.30;;;;;;;19.75;59.30;99022.12;;;;-48
2021/11/02 09:15:38;;;;;;;1.44;1.29;;;;;;;19.74;59.32;99022.78;;;;-48
2021/11/02 09:18:38;;;;;;;1.71;1.52;;;;;;;19.74;59.35;99019.88;;;;-48
2021/11/02 09:21:38;;;;;;;1.45;1.30;;;;;;;19.73;59.33;99020.37;;;;-48
2021/11/02 09:24:42;;;;;;;1.70;1.45;;;;;;;19.72;59.31;99019.64;;;;-48
2021/11/02 09:27:38;;;;;;;1.97;1.45;;;;;;;19.72;59.36;99019.27;;;;-48
2021/11/02 09:30:38;;;;;;;1.47;1.37;;;;;;;19.72;59.37;99019.01;;;;-48
2021/11/02 09:33:38;;;;;;;1.99;1.55;;;;;;;19.71;59.41;99018.76;;;;-50
2021/11/02 09:36:40;;;;;;;1.40;1.30;;;;;;;19.71;59.76;99015.44;;;;-48
2021/11/02 09:39:40;;;;;;;2.60;1.40;;;;;;;19.72;59.78;99023.23;;;;-48
2021/11/02 09:42:38;;;;;;;2.13;1.51;;;;;;;19.72;59.90;99022.82;;;;-48
2021/11/02 09:46:38;;;;;;;1.42;1.32;;;;;;;19.73;59.83;99027.75;;;;-49
2021/11/02 09:51:38;;;;;;;1.51;1.41;;;;;;;19.74;59.81;99024.34;;;;-46
2021/11/02 09:54:39;;;;;;;2.33;1.40;;;;;;;19.75;59.86;99026.18;;;;-47
2021/11/02 09:58:38;;;;;;;1.35;1.25;;;;;;;19.76;60.01;99030.95;;;;-49
2021/11/02 10:01:38;;;;;;;1.50;1.40;;;;;;;19.76;59.88;99029.25;;;;-56
2021/11/02 10:04:39;;;;;;;2.81;1.39;;;;;;;19.78;59.99;99032.55;;;;-55
2021/11/02 10:07:41;;;;;;;1.81;1.50;;;;;;;19.78;59.86;99033.13;;;;-57
2021/11/02 10:11:38;;;;;;;1.77;1.45;;;;;;;19.79;60.00;99034.78;;;;-54
2021/11/02 10:14:40;;;;;;;1.65;1.33;;;;;;;19.82;59.99;99032.95;;;;-47
2021/11/02 10:17:39;;;;;;;1.37;1.27;;;;;;;19.82;59.95;99037.03;;;;-51
2021/11/02 10:22:38;;;;;;;1.51;1.41;;;;;;;19.83;59.99;99040.11;;;;-54
2021/11/02 10:27:38;;;;;;;5.09;1.51;;;;;;;19.83;59.57;99039.77;;;;-51
2021/11/02 10:30:39;;;;;;;2.75;1.44;;;;;;;19.83;59.81;99043.34;;;;-60
2021/11/02 10:33:38;;;;;;;3.49;1.38;;;;;;;19.84;59.86;99041.70;;;;-59
2021/11/02 10:36:38;;;;;;;4.52;1.60;;;;;;;19.84;59.80;99035.47;;;;-46
2021/11/02 10:39:41;;;;;;;4.73;1.63;;;;;;;19.84;59.83;99031.23;;;;-56
2021/11/02 10:42:41;;;;;;;6.77;1.81;;;;;;;19.85;59.37;99031.92;;;;-59
2021/11/02 10:46:38;;;;;;;4.01;1.57;;;;;;;19.85;59.81;99032.34;;;;-59
2021/11/02 10:49:38;;;;;;;5.35;1.50;;;;;;;19.85;59.75;99027.86;;;;-51
2021/11/02 10:52:38;;;;;;;4.13;1.61;;;;;;;19.86;59.86;99025.73;;;;-53
2021/11/02 10:55:38;;;;;;;3.92;1.67;;;;;;;19.86;59.88;99026.81;;;;-50
2021/11/02 10:58:38;;;;;;;3.25;1.51;;;;;;;19.86;59.95;99026.80;;;;-54
2021/11/02 11:01:38;;;;;;;2.36;1.51;;;;;;;19.86;59.96;99029.58;;;;-56
2021/11/02 11:04:38;;;;;;;3.45;1.65;;;;;;;19.86;60.01;99030.78;;;;-54
2021/11/02 11:07:38;;;;;;;3.93;1.57;;;;;;;19.87;60.01;99028.15;;;;-57
2021/11/02 11:10:38;;;;;;;4.42;1.60;;;;;;;19.88;60.06;99027.80;;;;-51
2021/11/02 11:13:38;;;;;;;3.59;1.39;;;;;;;19.88;60.04;99029.53;;;;-52
2021/11/02 11:16:38;;;;;;;2.98;1.59;;;;;;;19.87;60.00;99025.78;;;;-59
2021/11/02 11:19:38;;;;;;;5.14;1.76;;;;;;;19.88;60.06;99027.82;;;;-61
2021/11/02 11:22:38;;;;;;;2.91;1.39;;;;;;;19.88;60.01;99019.94;;;;-60
2021/11/02 11:25:38;;;;;;;1.71;1.43;;;;;;;19.88;60.06;99021.73;;;;-58
2021/11/02 11:28:38;;;;;;;2.64;1.57;;;;;;;19.88;60.06;99021.80;;;;-49
2021/11/02 11:31:38;;;;;;;2.98;1.40;;;;;;;19.88;60.05;99021.89;;;;-51
2021/11/02 11:34:39;;;;;;;3.89;1.48;;;;;;;19.87;60.06;99021.32;;;;-51
2021/11/02 11:37:38;;;;;;;3.98;1.46;;;;;;;19.87;60.05;99022.69;;;;-51
2021/11/02 11:40:38;;;;;;;2.79;1.50;;;;;;;19.85;59.96;99016.24;;;;-51
2021/11/02 11:43:38;;;;;;;2.27;1.45;;;;;;;19.84;60.00;99017.48;;;;-51
2021/11/02 11:46:38;;;;;;;5.32;1.73;;;;;;;19.83;59.97;99016.67;;;;-57
2021/11/02 11:49:38;;;;;;;2.61;1.41;;;;;;;19.82;59.90;99012.73;;;;-48
2021/11/02 11:52:38;;;;;;;1.81;1.25;;;;;;;19.80;59.90;99021.05;;;;-57
2021/11/02 11:55:38;;;;;;;2.04;1.46;;;;;;;19.79;59.94;99015.78;;;;-57
2021/11/02 11:58:38;;;;;;;3.51;1.43;;;;;;;19.78;59.94;99018.23;;;;-48
2021/11/02 12:01:38;;;;;;;2.56;1.46;;;;;;;19.79;59.87;99021.06;;;;-48
2021/11/02 12:04:38;;;;;;;1.73;1.36;;;;;;;19.77;59.89;99018.81;;;;-48
2021/11/02 12:07:38;;;;;;;3.07;1.54;;;;;;;19.76;59.85;99015.28;;;;-50
2021/11/02 12:10:40;;;;;;;2.26;1.34;;;;;;;19.76;59.86;99015.61;;;;-48
2021/11/02 12:13:38;;;;;;;2.05;1.33;;;;;;;19.75;59.89;99016.02;;;;-57
2021/11/02 12:16:38;;;;;;;2.02;1.37;;;;;;;19.74;59.88;99016.86;;;;-51
2021/11/02 12:19:39;;;;;;;1.47;1.30;;;;;;;19.74;59.90;99014.52;;;;-50
2021/11/02 12:22:41;;;;;;;1.40;1.30;;;;;;;19.72;59.85;99015.36;;;;-50
2021/11/02 12:25:39;;;;;;;1.81;1.35;;;;;;;19.72;59.87;99010.86;;;;-50
2021/11/02 12:28:38;;;;;;;1.67;1.29;;;;;;;19.72;59.88;99008.28;;;;-50
2021/11/02 12:31:38;;;;;;;2.15;1.46;;;;;;;19.71;59.88;99005.61;;;;-57
2021/11/02 12:34:38;;;;;;;2.02;1.40;;;;;;;19.70;59.87;99006.50;;;;-50
2021/11/02 12:37:38;;;;;;;1.47;1.27;;;;;;;19.69;59.92;99004.05;;;;-51
2021/11/02 12:40:38;;;;;;;2.49;1.49;;;;;;;19.68;59.85;98996.77;;;;-57
2021/11/02 12:43:38;;;;;;;2.28;1.37;;;;;;;19.68;59.89;99004.97;;;;-57
2021/11/02 12:46:39;;;;;;;2.04;1.48;;;;;;;19.67;59.87;99002.00;;;;-50
2021/11/02 12:49:38;;;;;;;1.49;1.38;;;;;;;19.65;59.90;99000.58;;;;-58
2021/11/02 12:52:38;;;;;;;2.10;1.35;;;;;;;19.66;59.88;98998.52;;;;-48
2021/11/02 12:55:39;;;;;;;1.47;1.30;;;;;;;19.64;59.88;99002.20;;;;-48
2021/11/02 12:58:38;;;;;;;2.68;1.40;;;;;;;19.63;59.90;99000.94;;;;-48
2021/11/02 13:01:38;;;;;;;1.99;1.30;;;;;;;19.63;59.90;98997.20;;;;-48
2021/11/02 13:04:38;;;;;;;1.41;1.30;;;;;;;19.62;59.91;98997.52;;;;-48
2021/11/02 13:07:38;;;;;;;2.01;1.30;;;;;;;19.62;59.97;98995.83;;;;-51
2021/11/02 13:10:38;;;;;;;1.79;1.30;;;;;;;19.62;59.92;98992.83;;;;-56
2021/11/02 13:13:41;;;;;;;1.41;1.21;;;;;;;19.61;59.95;98986.49;;;;-48
2021/11/02 13:16:38;;;;;;;1.46;1.36;;;;;;;19.59;59.96;98984.91;;;;-48
2021/11/02 13:19:38;;;;;;;2.20;1.30;;;;;;;19.59;59.96;98988.41;;;;-48
2021/11/02 13:22:38;;;;;;;1.73;1.25;;;;;;;19.59;59.95;98991.25;;;;-48
2021/11/02 13:25:38;;;;;;;1.56;1.21;;;;;;;19.59;59.92;98995.86;;;;-48
2021/11/02 13:28:38;;;;;;;1.32;1.22;;;;;;;19.58;59.95;98999.13;;;;-57
2021/11/02 13:31:38;;;;;;;1.51;1.37;;;;;;;19.58;60.00;98994.59;;;;-48
2021/11/02 13:34:38;;;;;;;1.44;1.30;;;;;;;19.57;59.94;98994.29;;;;-48
2021/11/02 13:37:38;;;;;;;1.67;1.35;;;;;;;19.56;59.91;98995.98;;;;-50
2021/11/02 13:40:38;;;;;;;2.27;1.44;;;;;;;19.58;60.01;99002.22;;;;-49
2021/11/02 13:43:38;;;;;;;2.17;1.41;;;;;;;19.59;60.01;99004.08;;;;-61
2021/11/02 13:46:38;;;;;;;1.61;1.20;;;;;;;19.61;60.16;98999.51;;;;-49
2021/11/02 13:49:38;;;;;;;2.49;1.23;;;;;;;19.63;60.19;98998.39;;;;-54
2021/11/02 13:52:38;;;;;;;1.43;1.20;;;;;;;19.67;60.17;98990.70;;;;-51
2021/11/02 13:55:38;;;;;;;1.37;1.21;;;;;;;19.71;60.31;98985.30;;;;-53
2021/11/02 13:58:38;;;;;;;2.07;1.23;;;;;;;19.75;60.40;98985.53;;;;-54
2021/11/02 14:01:38;;;;;;;1.81;1.31;;;;;;;19.79;60.24;98987.91;;;;-57
2021/11/02 14:04:38;;;;;;;1.99;1.20;;;;;;;19.82;60.27;98983.71;;;;-57
2021/11/02 14:07:38;;;;;;;1.38;1.11;;;;;;;19.88;60.75;98985.15;;;;-53
2021/11/02 14:10:38;;;;;;;2.21;1.30;;;;;;;19.89;59.59;98988.67;;;;-57
2021/11/02 14:13:38;;;;;;;4.35;1.40;;;;;;;19.96;60.08;98995.37;;;;-59
2021/11/02 14:16:38;;;;;;;2.49;1.35;;;;;;;20.01;59.95;99004.17;;;;-60
2021/11/02 14:19:38;;;;;;;5.88;1.49;;;;;;;20.05;60.02;99002.87;;;;-54
2021/11/02 14:22:38;;;;;;;1.74;1.30;;;;;;;20.09;60.20;99002.86;;;;-56
2021/11/02 14:25:38;;;;;;;6.35;1.43;;;;;;;20.14;60.21;99004.55;;;;-59
2021/11/02 14:28:38;;;;;;;2.25;1.20;;;;;;;20.18;60.09;99003.57;;;;-59
2021/11/02 14:31:38;;;;;;;2.75;1.20;;;;;;;20.22;60.38;99003.09;;;;-47
2021/11/02 14:34:38;;;;;;;1.68;1.28;;;;;;;20.25;60.20;98997.25;;;;-50
2021/11/02 14:37:38;;;;;;;1.93;1.28;;;;;;;20.28;60.22;99001.58;;;;-48
2021/11/02 14:40:38;;;;;;;1.75;1.25;;;;;;;20.34;60.38;99002.30;;;;-48
2021/11/02 14:43:38;;;;;;;1.54;1.30;;;;;;;20.36;60.48;98998.27;;;;-50
2021/11/02 14:46:38;;;;;;;1.93;1.11;;;;;;;20.38;60.19;99003.98;;;;-45
2021/11/02 14:49:38;;;;;;;2.17;1.29;;;;;;;20.40;60.11;98999.54;;;;-50
2021/11/02 14:52:38;;;;;;;2.09;1.19;;;;;;;20.42;60.05;99002.60;;;;-52
2021/11/02 14:55:38;;;;;;;2.49;1.25;;;;;;;20.45;60.07;98999.36;;;;-51
2021/11/02 14:58:38;;;;;;;1.40;1.28;;;;;;;20.46;59.71;99010.17;;;;-56
2021/11/02 15:01:38;;;;;;;2.54;1.23;;;;;;;20.48;59.74;99008.66;;;;-54
2021/11/02 15:04:39;;;;;;;1.25;1.15;;;;;;;20.51;59.93;99009.02;;;;-54
2021/11/02 15:07:38;;;;;;;2.32;1.20;;;;;;;20.53;59.62;99013.62;;;;-53
2021/11/02 15:10:38;;;;;;;1.33;1.14;;;;;;;20.54;59.95;99008.45;;;;-55
2021/11/02 15:13:38;;;;;;;2.97;1.30;;;;;;;20.56;59.93;99009.22;;;;-54
2021/11/02 15:16:38;;;;;;;1.19;1.04;;;;;;;20.58;60.20;99009.67;;;;-56
2021/11/02 15:19:38;;;;;;;1.79;1.31;;;;;;;20.61;60.08;99015.16;;;;-45
2021/11/02 15:22:46;;;;;;;1.47;1.19;;;;;;;20.62;60.05;99019.39;;;;-44
2021/11/02 15:25:44;;;;;;;1.40;1.10;;;;;;;20.64;60.07;99020.63;;;;-47
2021/11/02 15:28:38;;;;;;;1.11;1.10;;;;;;;20.65;59.91;99024.13;;;;-62
2021/11/02 15:31:38;;;;;;;1.69;1.19;;;;;;;20.66;59.79;99027.66;;;;-59
2021/11/02 15:34:38;;;;;;;2.81;1.33;;;;;;;20.68;59.91;99016.81;;;;-60
2021/11/02 15:37:38;;;;;;;1.27;1.17;;;;;;;20.69;59.78;99022.89;;;;-47
2021/11/02 15:40:39;;;;;;;4.37;1.20;;;;;;;20.70;59.62;99025.31;;;;-49
2021/11/02 15:43:38;;;;;;;2.04;1.05;;;;;;;20.71;59.57;99026.28;;;;-58
2021/11/02 15:46:38;;;;;;;1.47;1.30;;;;;;;20.71;59.50;99030.09;;;;-49
2021/11/02 15:49:38;;;;;;;1.51;1.10;;;;;;;20.71;59.56;99030.08;;;;-53
2021/11/02 15:52:38;;;;;;;1.45;1.24;;;;;;;20.72;59.55;99034.14;;;;-53
2021/11/02 15:55:38;;;;;;;5.00;1.31;;;;;;;20.73;59.60;99035.83;;;;-60
2021/11/02 15:58:38;;;;;;;2.46;1.11;;;;;;;20.74;59.47;99042.31;;;;-59
2021/11/02 16:01:38;;;;;;;4.65;1.12;;;;;;;20.76;59.68;99041.71;;;;-49
2021/11/02 16:04:38;;;;;;;2.04;1.10;;;;;;;20.78;59.84;99042.88;;;;-51
2021/11/02 16:07:38;;;;;;;3.13;1.27;;;;;;;20.78;59.10;99045.02;;;;-57
2021/11/02 16:10:38;;;;;;;3.98;1.26;;;;;;;20.78;59.27;99041.58;;;;-55
2021/11/02 16:13:38;;;;;;;1.21;1.10;;;;;;;20.81;59.46;99043.13;;;;-59
2021/11/02 16:16:38;;;;;;;2.28;1.21;;;;;;;20.83;59.62;99046.45;;;;-53
2021/11/02 16:19:38;;;;;;;1.27;0.95;;;;;;;20.84;59.56;99055.77;;;;-52
2021/11/02 16:22:38;;;;;;;2.51;1.07;;;;;;;20.85;59.43;99052.66;;;;-63
2021/11/02 16:25:38;;;;;;;2.41;1.30;;;;;;;20.87;59.77;99052.04;;;;-55
2021/11/02 16:28:38;;;;;;;2.16;1.20;;;;;;;20.89;59.81;99055.00;;;;-53
2021/11/02 16:31:38;;;;;;;2.07;1.08;;;;;;;20.88;58.96;99056.91;;;;-57
2021/11/02 16:34:38;;;;;;;6.61;1.20;;;;;;;20.88;58.83;99059.84;;;;-56
2021/11/02 16:37:38;;;;;;;6.71;1.08;;;;;;;20.89;58.81;99060.62;;;;-54
2021/11/02 16:40:38;;;;;;;2.14;1.21;;;;;;;20.92;59.20;99063.42;;;;-54
2021/11/02 16:43:38;;;;;;;3.91;1.25;;;;;;;20.94;59.28;99069.08;;;;-51
2021/11/02 16:46:38;;;;;;;1.97;1.19;;;;;;;20.96;59.41;99070.50;;;;-51
2021/11/02 16:49:38;;;;;;;4.36;1.27;;;;;;;20.97;59.42;99076.33;;;;-46
2021/11/02 16:52:40;;;;;;;2.79;1.02;;;;;;;20.98;59.52;99077.45;;;;-56
2021/11/02 16:58:38;;;;;;;1.85;1.15;;;;;;;21.01;59.27;99076.89;;;;-58
2021/11/02 17:01:38;;;;;;;1.91;1.17;;;;;;;21.00;58.61;99080.99;;;;-59
2021/11/02 17:04:38;;;;;;;5.66;1.29;;;;;;;21.00;58.80;99083.28;;;;-59
2021/11/02 17:07:38;;;;;;;3.33;1.29;;;;;;;21.02;59.07;99083.88;;;;-54
2021/11/02 17:10:38;;;;;;;2.03;1.07;;;;;;;21.03;59.13;99082.06;;;;-53
2021/11/02 17:13:38;;;;;;;1.87;1.19;;;;;;;21.04;59.18;99084.66;;;;-57
2021/11/02 17:16:38;;;;;;;1.95;1.07;;;;;;;21.06;59.31;99089.02;;;;-57
2021/11/02 17:19:38;;;;;;;1.92;1.23;;;;;;;21.07;59.40;99089.81;;;;-56
2021/11/02 17:22:38;;;;;;;1.42;1.13;;;;;;;21.07;59.39;99096.63;;;;-57
2021/11/02 17:25:38;;;;;;;9.81;1.19;;;;;;;21.10;59.41;99094.05;;;;-56
2021/11/02 17:28:38;;;;;;;2.55;1.17;;;;;;;21.11;59.54;99096.63;;;;-54
2021/11/02 17:31:39;;;;;;;2.47;1.30;;;;;;;21.14;59.55;99094.69;;;;-54
2021/11/02 17:34:39;;;;;;;1.15;1.01;;;;;;;21.16;59.54;99094.83;;;;-53
2021/11/02 17:37:38;;;;;;;2.07;1.19;;;;;;;21.17;59.24;99103.36;;;;-51
2021/11/02 17:40:38;;;;;;;1.86;1.16;;;;;;;21.17;59.16;99102.88;;;;-57
2021/11/02 17:43:38;;;;;;;1.71;1.11;;;;;;;21.18;59.32;99101.45;;;;-49
2021/11/02 17:46:38;;;;;;;2.29;1.09;;;;;;;21.19;59.29;99106.06;;;;-50
2021/11/02 17:49:38;;;;;;;4.07;1.09;;;;;;;21.20;59.25;99103.37;;;;-57
2021/11/02 17:52:38;;;;;;;2.77;1.13;;;;;;;21.24;59.41;99108.47;;;;-58
2021/11/02 17:55:38;;;;;;;2.91;1.10;;;;;;;21.24;59.08;99108.00;;;;-57
2021/11/02 17:58:38;;;;;;;1.09;1.00;;;;;;;21.23;58.97;99111.59;;;;-57
2021/11/02 18:01:38;;;;;;;1.38;0.96;;;;;;;21.23;59.01;99120.33;;;;-57
2021/11/02 18:04:38;;;;;;;2.85;1.07;;;;;;;21.22;58.93;99124.65;;;;-58
2021/11/02 18:07:38;;;;;;;4.49;1.19;;;;;;;21.22;58.88;99126.39;;;;-50
2021/11/02 18:10:38;;;;;;;3.77;1.20;;;;;;;21.19;58.14;99128.56;;;;-48
2021/11/02 18:13:38;;;;;;;2.43;1.07;;;;;;;21.20;58.31;99128.78;;;;-48
2021/11/02 18:16:38;;;;;;;3.83;1.15;;;;;;;21.19;58.45;99126.92;;;;-44
2021/11/02 18:19:38;;;;;;;1.41;1.07;;;;;;;21.19;58.58;99121.98;;;;-44
2021/11/02 18:22:38;;;;;;;1.30;1.10;;;;;;;21.20;58.59;99129.92;;;;-44
2021/11/02 18:25:38;;;;;;;2.14;1.06;;;;;;;21.19;58.65;99133.28;;;;-59
2021/11/02 18:28:38;;;;;;;1.17;1.04;;;;;;;21.19;58.63;99131.66;;;;-48
2021/11/02 18:31:38;;;;;;;2.15;1.10;;;;;;;21.19;58.68;99136.20;;;;-50
2021/11/02 18:34:38;;;;;;;2.38;1.24;;;;;;;21.19;58.64;99136.46;;;;-50
2021/11/02 18:37:38;;;;;;;1.50;1.11;;;;;;;21.19;58.64;99138.19;;;;-50
2021/11/02 18:40:38;;;;;;;1.59;1.10;;;;;;;21.19;58.61;99142.91;;;;-51
2021/11/02 18:43:38;;;;;;;2.17;1.00;;;;;;;21.18;58.64;99144.69;;;;-46
2021/11/02 18:46:38;;;;;;;1.23;1.11;;;;;;;21.19;58.67;99143.88;;;;-47
2021/11/02 18:49:38;;;;;;;1.47;1.04;;;;;;;21.19;58.67;99147.13;;;;-60
2021/11/02 18:52:38;;;;;;;2.15;1.09;;;;;;;21.18;58.69;99142.01;;;;-58
2021/11/02 18:55:38;;;;;;;1.15;1.01;;;;;;;21.18;58.65;99147.13;;;;-58
2021/11/02 18:58:38;;;;;;;1.31;1.21;;;;;;;21.18;58.70;99150.98;;;;-45
2021/11/02 19:01:42;;;;;;;1.39;1.06;;;;;;;21.18;58.68;99153.97;;;;-58
2021/11/02 19:04:38;;;;;;;1.97;0.94;;;;;;;21.18;58.68;99152.11;;;;-59
2021/11/02 19:07:38;;;;;;;1.46;1.13;;;;;;;21.18;58.61;99151.53;;;;-57
2021/11/02 19:10:38;;;;;;;1.30;1.05;;;;;;;21.18;58.68;99149.83;;;;-57
2021/11/02 19:13:38;;;;;;;1.73;1.17;;;;;;;21.18;58.71;99151.13;;;;-57
2021/11/02 19:16:38;;;;;;;1.13;1.03;;;;;;;21.18;58.68;99153.41;;;;-50
2021/11/02 19:19:38;;;;;;;1.12;1.08;;;;;;;21.18;58.65;99153.97;;;;-47
2021/11/02 19:22:38;;;;;;;2.52;1.13;;;;;;;21.18;58.72;99157.09;;;;-49
2021/11/02 19:25:38;;;;;;;1.09;1.00;;;;;;;21.18;58.67;99157.99;;;;-49
2021/11/02 19:28:38;;;;;;;1.75;1.30;;;;;;;21.18;58.65;99162.23;;;;-49
2021/11/02 19:31:38;;;;;;;2.03;1.15;;;;;;;21.18;58.70;99167.28;;;;-49
2021/11/02 19:34:38;;;;;;;1.49;1.12;;;;;;;21.17;58.69;99169.81;;;;-45
2021/11/02 19:37:39;;;;;;;0.95;0.90;;;;;;;21.17;58.65;99168.61;;;;-44
2021/11/02 19:40:38;;;;;;;1.53;0.99;;;;;;;21.17;58.65;99158.03;;;;-44
2021/11/02 19:43:40;;;;;;;1.29;1.09;;;;;;;21.16;58.67;99156.14;;;;-44
2021/11/02 19:46:38;;;;;;;1.33;1.12;;;;;;;21.16;58.71;99159.67;;;;-57
2021/11/02 19:49:38;;;;;;;1.30;1.01;;;;;;;21.15;58.69;99165.06;;;;-50
2021/11/02 19:52:38;;;;;;;1.43;1.05;;;;;;;21.14;58.65;99161.73;;;;-51
2021/11/02 19:55:38;;;;;;;2.07;1.26;;;;;;;21.09;57.68;99159.56;;;;-51
2021/11/02 19:58:38;;;;;;;2.07;1.43;;;;;;;21.06;57.23;99163.37;;;;-45
2021/11/02 20:01:38;;;;;;;2.63;1.41;;;;;;;21.03;57.15;99162.95;;;;-54
2021/11/02 20:04:38;;;;;;;1.44;1.30;;;;;;;21.01;56.77;99163.98;;;;-56
2021/11/02 20:07:38;;;;;;;2.77;1.39;;;;;;;20.98;57.06;99157.11;;;;-51
2021/11/02 20:10:38;;;;;;;1.43;1.33;;;;;;;20.97;56.98;99161.70;;;;-51
2021/11/02 20:13:38;;;;;;;1.49;1.39;;;;;;;20.93;56.88;99158.51;;;;-51
2021/11/02 20:16:38;;;;;;;2.41;1.50;;;;;;;20.91;56.97;99160.58;;;;-51
2021/11/02 20:19:38;;;;;;;2.88;1.40;;;;;;;20.91;56.82;99160.92;;;;-52
2021/11/02 20:22:38;;;;;;;1.91;1.45;;;;;;;20.92;57.16;99159.59;;;;-59
2021/11/02 20:25:38;;;;;;;1.79;1.49;;;;;;;20.93;57.48;99166.56;;;;-58
2021/11/02 20:28:38;;;;;;;1.85;1.47;;;;;;;20.93;57.63;99172.52;;;;-59
2021/11/02 20:31:38;;;;;;;1.49;1.32;;;;;;;20.93;57.75;99173.91;;;;-58
2021/11/02 20:34:38;;;;;;;1.93;1.49;;;;;;;20.91;57.95;99171.98;;;;-51
2021/11/02 20:37:38;;;;;;;3.43;1.41;;;;;;;20.91;58.20;99174.19;;;;-49
2021/11/02 20:40:38;;;;;;;1.78;1.41;;;;;;;20.91;58.36;99172.63;;;;-47
2021/11/02 20:43:38;;;;;;;2.17;1.40;;;;;;;20.90;58.38;99176.73;;;;-48
2021/11/02 20:46:38;;;;;;;1.41;1.31;;;;;;;20.90;58.42;99176.34;;;;-50
2021/11/02 20:49:38;;;;;;;2.37;1.46;;;;;;;20.89;58.54;99174.62;;;;-53
2021/11/02 20:52:38;;;;;;;1.87;1.40;;;;;;;20.89;58.55;99173.88;;;;-47